createdAt,value
2018-02-11T00:00:20.195Z,3.10
2018-02-11T00:02:48.437Z,3.10
2018-02-11T00:05:16.714Z,3.10
2018-02-11T00:07:45.293Z,3.20
2018-02-11T00:10:13.529Z,3.20
2018-02-11T00:12:41.823Z,3.20
2018-02-11T00:15:10.074Z,3.20
2018-02-11T00:17:38.364Z,3.20
2018-02-11T00:20:07.012Z,3.20
2018-02-11T00:22:35.235Z,3.10
2018-02-11T00:25:03.472Z,3.20
2018-02-11T00:27:31.733Z,3.20
2018-02-11T00:30:00.030Z,3.20
2018-02-11T00:32:28.327Z,3.20
2018-02-11T00:34:56.554Z,3.20
2018-02-11T00:37:30.787Z,3.20
2018-02-11T00:39:59.080Z,3.20
2018-02-11T00:42:27.310Z,3.30
2018-02-11T00:44:56.328Z,3.20
2018-02-11T00:47:24.605Z,3.20
2018-02-11T00:49:52.890Z,3.20
2018-02-11T00:52:21.121Z,3.30
2018-02-11T00:54:49.732Z,3.20
2018-02-11T00:57:18.775Z,3.30
2018-02-11T00:59:47.020Z,3.20
2018-02-11T01:02:15.256Z,3.30
2018-02-11T01:04:44.260Z,3.30
2018-02-11T01:07:13.282Z,3.30
2018-02-11T01:09:41.554Z,3.30
2018-02-11T01:12:09.800Z,3.40
2018-02-11T01:14:38.852Z,3.40
2018-02-11T01:17:07.462Z,3.40
2018-02-11T01:19:35.734Z,3.40
2018-02-11T01:22:04.005Z,3.40
2018-02-11T01:24:32.287Z,3.40
2018-02-11T01:27:00.518Z,3.40
2018-02-11T01:29:29.141Z,3.40
2018-02-11T01:31:57.407Z,3.40
2018-02-11T01:34:25.647Z,3.40
2018-02-11T01:36:53.900Z,3.40
2018-02-11T01:39:22.162Z,3.40
2018-02-11T01:41:50.720Z,3.40
2018-02-11T01:44:18.992Z,3.40
2018-02-11T01:46:47.260Z,3.40
2018-02-11T01:49:15.521Z,3.50
2018-02-11T01:51:43.788Z,3.40
2018-02-11T01:54:12.357Z,3.40
2018-02-11T01:56:41.415Z,3.40
2018-02-11T01:59:09.646Z,3.30
2018-02-11T02:01:37.898Z,3.40
2018-02-11T02:04:06.135Z,3.40
2018-02-11T02:06:34.431Z,3.40
2018-02-11T02:09:02.668Z,3.40
2018-02-11T02:11:31.268Z,3.40
2018-02-11T02:13:59.493Z,3.40
2018-02-11T02:16:28.547Z,3.40
2018-02-11T02:18:56.828Z,3.50
2018-02-11T02:21:25.104Z,3.50
2018-02-11T02:23:53.386Z,3.50
2018-02-11T02:26:21.621Z,3.40
2018-02-11T02:28:50.239Z,3.40
2018-02-11T02:31:18.463Z,3.40
2018-02-11T02:33:47.518Z,3.40
2018-02-11T02:36:15.794Z,3.30
2018-02-11T02:38:44.081Z,3.40
2018-02-11T02:41:12.733Z,3.40
2018-02-11T02:43:40.978Z,3.40
2018-02-11T02:46:09.969Z,3.40
2018-02-11T02:48:38.982Z,3.30
2018-02-11T02:51:07.221Z,3.30
2018-02-11T02:53:35.517Z,3.30
2018-02-11T02:56:04.560Z,3.30
2018-02-11T02:58:32.832Z,3.30
2018-02-11T03:01:01.087Z,3.30
2018-02-11T03:03:29.321Z,3.30
2018-02-11T03:05:57.574Z,3.30
2018-02-11T03:08:25.848Z,3.20
2018-02-11T03:10:54.116Z,3.20
2018-02-11T03:13:22.436Z,3.20
2018-02-11T03:15:50.670Z,3.20
2018-02-11T03:18:18.961Z,3.30
2018-02-11T03:20:47.197Z,3.30
2018-02-11T03:23:15.437Z,3.30
2018-02-11T03:25:43.673Z,3.30
2018-02-11T03:28:11.905Z,3.30
2018-02-11T03:30:40.956Z,3.30
2018-02-11T03:33:09.221Z,3.30
2018-02-11T03:35:37.489Z,3.30
2018-02-11T03:38:05.735Z,3.30
2018-02-11T03:40:34.778Z,3.20
2018-02-11T03:43:03.452Z,3.20
2018-02-11T03:45:31.730Z,3.20
2018-02-11T03:47:59.961Z,3.30
2018-02-11T03:50:28.980Z,3.30
2018-02-11T03:52:57.210Z,3.20
2018-02-11T03:55:25.899Z,3.20
2018-02-11T03:57:54.180Z,3.30
2018-02-11T04:00:22.404Z,3.30
2018-02-11T04:02:50.657Z,3.30
2018-02-11T04:05:19.663Z,3.40
2018-02-11T04:07:47.913Z,3.40
2018-02-11T04:10:16.955Z,3.40
2018-02-11T04:12:45.231Z,3.40
2018-02-11T04:15:13.469Z,3.40
2018-02-11T04:17:42.518Z,3.40
2018-02-11T04:20:10.765Z,3.40
2018-02-11T04:22:39.040Z,3.40
2018-02-11T04:25:08.455Z,3.30
2018-02-11T04:27:36.734Z,3.30
2018-02-11T04:30:04.964Z,3.30
2018-02-11T04:32:33.216Z,3.30
2018-02-11T04:35:01.498Z,3.30
2018-02-11T04:37:29.753Z,3.30
2018-02-11T04:39:57.988Z,3.30
2018-02-11T04:42:27.046Z,3.30
2018-02-11T04:44:55.318Z,3.30
2018-02-11T04:47:23.578Z,3.30
2018-02-11T04:49:51.833Z,3.20
2018-02-11T04:52:20.071Z,3.20
2018-02-11T04:54:48.354Z,3.10
2018-02-11T04:57:16.628Z,3.10
2018-02-11T04:59:44.934Z,3.10
2018-02-11T05:02:13.969Z,3.00
2018-02-11T05:04:42.188Z,3.00
2018-02-11T05:07:11.203Z,3.00
2018-02-11T05:09:39.485Z,3.00
2018-02-11T05:12:07.732Z,3.10
2018-02-11T05:14:36.733Z,3.10
2018-02-11T05:17:05.771Z,3.00
2018-02-11T05:19:34.052Z,3.00
2018-02-11T05:22:02.348Z,3.00
2018-02-11T05:24:31.359Z,3.00
2018-02-11T05:26:59.589Z,2.90
2018-02-11T05:29:27.839Z,2.90
2018-02-11T05:31:56.799Z,2.90
2018-02-11T05:34:25.486Z,2.90
2018-02-11T05:36:53.758Z,2.90
2018-02-11T05:39:21.987Z,2.90
2018-02-11T05:41:50.272Z,2.90
2018-02-11T05:44:18.552Z,2.90
2018-02-11T05:46:46.800Z,2.90
2018-02-11T05:49:15.800Z,2.80
2018-02-11T05:51:44.058Z,2.80
2018-02-11T05:54:13.212Z,2.70
2018-02-11T05:56:41.825Z,2.70
2018-02-11T05:59:10.092Z,2.70
2018-02-11T06:01:38.325Z,2.70
2018-02-11T06:04:06.576Z,2.70
2018-02-11T06:06:35.618Z,2.70
2018-02-11T06:09:04.246Z,2.70
2018-02-11T06:11:32.475Z,2.70
2018-02-11T06:14:00.752Z,2.80
2018-02-11T06:16:29.000Z,2.80
2018-02-11T06:18:57.239Z,2.80
2018-02-11T06:21:26.307Z,2.70
2018-02-11T06:23:54.527Z,2.70
2018-02-11T06:26:24.901Z,2.70
2018-02-11T06:28:53.171Z,2.60
2018-02-11T06:31:21.396Z,2.60
2018-02-11T06:33:49.646Z,2.60
2018-02-11T06:36:17.875Z,2.60
2018-02-11T06:38:46.133Z,2.70
2018-02-11T06:41:15.137Z,2.60
2018-02-11T06:43:44.481Z,2.70
2018-02-11T06:46:12.762Z,2.70
2018-02-11T06:48:40.988Z,2.80
2018-02-11T06:51:10.013Z,2.80
2018-02-11T06:53:38.256Z,2.70
2018-02-11T06:56:07.262Z,2.80
2018-02-11T06:58:35.509Z,2.80
2018-02-11T07:01:03.800Z,2.80
2018-02-11T07:03:32.074Z,2.70
2018-02-11T07:06:00.709Z,2.70
2018-02-11T07:08:28.935Z,2.70
2018-02-11T07:10:58.019Z,2.80
2018-02-11T07:13:26.265Z,2.70
2018-02-11T07:15:54.506Z,2.70
2018-02-11T07:18:22.757Z,2.70
2018-02-11T07:20:51.007Z,2.80
2018-02-11T07:23:19.739Z,2.80
2018-02-11T07:25:48.781Z,2.90
2018-02-11T07:28:17.055Z,2.90
2018-02-11T07:30:45.341Z,3.00
2018-02-11T07:33:13.626Z,3.10
2018-02-11T07:35:41.930Z,3.20
2018-02-11T07:38:10.177Z,3.20
2018-02-11T07:40:38.410Z,3.20
2018-02-11T07:43:06.689Z,3.10
2018-02-11T07:45:35.242Z,3.20
2018-02-11T07:48:03.460Z,3.20
2018-02-11T07:50:31.702Z,3.10
2018-02-11T07:53:00.721Z,3.10
2018-02-11T07:55:29.001Z,3.10
2018-02-11T07:57:57.251Z,3.10
2018-02-11T08:00:26.251Z,3.20
2018-02-11T08:02:55.694Z,3.30
2018-02-11T08:05:23.937Z,3.20
2018-02-11T08:07:52.948Z,3.30
2018-02-11T08:10:21.245Z,3.30
2018-02-11T08:12:49.516Z,3.40
2018-02-11T08:15:17.756Z,3.40
2018-02-11T08:17:46.807Z,3.50
2018-02-11T08:20:15.095Z,3.50
2018-02-11T08:22:43.328Z,3.60
2018-02-11T08:25:11.979Z,3.60
2018-02-11T08:27:40.200Z,3.60
2018-02-11T08:30:08.476Z,3.70
2018-02-11T08:32:36.799Z,3.80
2018-02-11T08:35:05.021Z,3.90
2018-02-11T08:37:33.285Z,3.90
2018-02-11T08:40:01.561Z,4.00
2018-02-11T08:42:30.569Z,4.10
2018-02-11T08:44:58.851Z,4.10
2018-02-11T08:47:27.686Z,4.10
2018-02-11T08:49:55.929Z,4.10
2018-02-11T08:52:24.214Z,4.10
2018-02-11T08:54:52.464Z,4.10
2018-02-11T08:57:20.730Z,4.10
2018-02-11T08:59:49.029Z,4.10
2018-02-11T09:02:17.269Z,4.00
2018-02-11T09:04:46.323Z,4.00
2018-02-11T09:07:14.643Z,4.00
2018-02-11T09:09:42.945Z,4.00
2018-02-11T09:12:11.691Z,3.90
2018-02-11T09:14:40.000Z,3.80
2018-02-11T09:17:09.060Z,3.80
2018-02-11T09:19:37.380Z,3.80
2018-02-11T09:22:06.472Z,3.70
2018-02-11T09:24:35.507Z,3.70
2018-02-11T09:27:03.739Z,3.70
2018-02-11T09:29:32.013Z,3.70
2018-02-11T09:32:01.013Z,3.90
2018-02-11T09:34:30.425Z,4.00
2018-02-11T09:36:58.666Z,4.00
2018-02-11T09:39:26.913Z,4.00
2018-02-11T09:41:55.205Z,4.00
2018-02-11T09:44:23.433Z,3.90
2018-02-11T09:46:51.723Z,3.90
2018-02-11T09:49:19.968Z,3.80
2018-02-11T09:51:49.355Z,3.70
2018-02-11T09:54:17.636Z,3.70
2018-02-11T09:56:45.905Z,3.70
2018-02-11T09:59:14.158Z,3.70
2018-02-11T10:01:42.440Z,3.70
2018-02-11T10:04:10.699Z,3.70
2018-02-11T10:06:38.980Z,3.80
2018-02-11T10:09:07.570Z,3.70
2018-02-11T10:11:35.796Z,3.60
2018-02-11T10:14:04.087Z,3.60
2018-02-11T10:16:32.336Z,3.50
2018-02-11T10:19:01.390Z,3.40
2018-02-11T10:21:29.682Z,3.40
2018-02-11T10:23:57.928Z,3.40
2018-02-11T10:26:26.190Z,3.40
2018-02-11T10:28:54.492Z,3.40
2018-02-11T10:31:23.132Z,3.40
2018-02-11T10:33:52.181Z,3.20
2018-02-11T10:36:20.414Z,3.20
2018-02-11T10:38:49.418Z,3.40
2018-02-11T10:41:17.695Z,3.30
2018-02-11T10:43:46.357Z,3.40
2018-02-11T10:46:14.635Z,3.40
2018-02-11T10:48:43.735Z,3.30
2018-02-11T10:51:12.758Z,3.30
2018-02-11T10:53:41.048Z,3.30
2018-02-11T10:56:09.359Z,3.20
2018-02-11T10:58:37.903Z,3.20
2018-02-11T11:01:06.504Z,3.20
2018-02-11T11:03:34.780Z,3.20
2018-02-11T11:06:03.030Z,3.10
2018-02-11T11:08:31.339Z,3.20
2018-02-11T11:10:59.810Z,3.30
2018-02-11T11:13:28.104Z,3.30
2018-02-11T11:15:56.381Z,3.40
2018-02-11T11:18:24.628Z,3.50
2018-02-11T11:20:52.943Z,3.50
2018-02-11T11:23:21.625Z,3.40
2018-02-11T11:25:50.648Z,3.40
2018-02-11T11:28:18.897Z,3.40
2018-02-11T11:30:47.212Z,3.50
2018-02-11T11:33:16.299Z,3.40
2018-02-11T11:35:44.618Z,3.40
2018-02-11T11:38:12.876Z,3.50
2018-02-11T11:40:42.314Z,3.40
2018-02-11T11:43:10.607Z,3.40
2018-02-11T11:45:38.896Z,3.40
2018-02-11T11:48:07.200Z,3.50
2018-02-11T11:50:36.250Z,3.50
2018-02-11T11:53:04.552Z,3.40
2018-02-11T11:55:32.848Z,3.40
2018-02-11T11:58:02.253Z,3.50
2018-02-11T12:00:31.266Z,3.50
2018-02-11T12:02:59.565Z,3.50
2018-02-11T12:05:27.837Z,3.50
2018-02-11T12:07:56.145Z,3.50
2018-02-11T12:10:24.441Z,3.60
2018-02-11T12:12:52.743Z,3.50
2018-02-11T12:15:21.757Z,3.70
2018-02-11T12:17:50.062Z,3.70
2018-02-11T12:20:18.640Z,3.70
2018-02-11T12:22:46.918Z,3.70
2018-02-11T12:25:15.152Z,3.70
2018-02-11T12:27:44.180Z,3.80
2018-02-11T12:30:12.487Z,3.80
2018-02-11T12:32:41.558Z,4.00
2018-02-11T12:35:09.840Z,4.00
2018-02-11T12:37:38.565Z,3.90
2018-02-11T12:40:06.835Z,3.90
2018-02-11T12:42:35.118Z,3.90
2018-02-11T12:45:03.376Z,4.00
2018-02-11T12:47:31.667Z,3.80
2018-02-11T12:50:00.312Z,3.70
2018-02-11T12:52:28.603Z,3.80
2018-02-11T12:54:56.844Z,3.80
2018-02-11T12:57:25.172Z,3.90
2018-02-11T12:59:54.124Z,4.00
2018-02-11T13:02:22.411Z,4.00
2018-02-11T13:04:50.678Z,4.10
2018-02-11T13:07:19.253Z,4.10
2018-02-11T13:09:48.246Z,4.20
2018-02-11T13:12:16.482Z,4.20
2018-02-11T13:14:44.795Z,4.10
2018-02-11T13:17:13.816Z,4.00
2018-02-11T13:19:42.108Z,4.00
2018-02-11T13:22:10.337Z,4.00
2018-02-11T13:24:39.826Z,4.10
2018-02-11T13:27:08.070Z,4.00
2018-02-11T13:29:36.317Z,4.20
2018-02-11T13:32:04.560Z,4.20
2018-02-11T13:34:33.623Z,4.30
2018-02-11T13:37:01.923Z,4.30
2018-02-11T13:39:30.203Z,4.30
2018-02-11T13:41:58.517Z,4.20
2018-02-11T13:44:26.790Z,4.30
2018-02-11T13:46:55.463Z,4.30
2018-02-11T13:49:24.537Z,4.40
2018-02-11T13:51:52.763Z,4.50
2018-02-11T13:54:21.064Z,4.50
2018-02-11T13:56:49.300Z,4.50
2018-02-11T13:59:17.594Z,4.60
2018-02-11T14:01:45.835Z,4.50
2018-02-11T14:04:15.204Z,4.50
2018-02-11T14:06:43.509Z,4.50
2018-02-11T14:09:11.746Z,4.50
2018-02-11T14:11:40.031Z,4.50
2018-02-11T14:14:08.281Z,4.50
2018-02-11T14:16:36.589Z,4.50
2018-02-11T14:19:04.876Z,4.40
2018-02-11T14:21:33.491Z,4.50
2018-02-11T14:24:02.503Z,4.40
2018-02-11T14:26:30.796Z,4.40
2018-02-11T14:28:59.068Z,4.40
2018-02-11T14:31:27.321Z,4.30
2018-02-11T14:33:56.379Z,4.40
2018-02-11T14:36:24.638Z,4.30
2018-02-11T14:38:52.977Z,4.40
2018-02-11T14:41:21.993Z,4.50
2018-02-11T14:43:50.641Z,4.50
2018-02-11T14:46:19.848Z,4.50
2018-02-11T14:48:48.887Z,4.50
2018-02-11T14:51:17.182Z,4.50
2018-02-11T14:53:45.439Z,4.50
2018-02-11T14:56:14.524Z,4.50
2018-02-11T14:58:42.776Z,4.50
2018-02-11T15:01:11.847Z,4.60
2018-02-11T15:03:40.124Z,4.60
2018-02-11T15:06:09.333Z,4.50
2018-02-11T15:08:37.627Z,4.60
2018-02-11T15:11:07.003Z,4.50
2018-02-11T15:13:35.262Z,4.60
2018-02-11T15:16:03.590Z,4.50
2018-02-11T15:18:32.622Z,4.60
2018-02-11T15:21:00.928Z,4.60
2018-02-11T15:23:29.206Z,4.60
2018-02-11T15:25:57.534Z,4.70
2018-02-11T15:28:25.852Z,4.70
2018-02-11T15:30:54.156Z,4.70
2018-02-11T15:33:23.203Z,4.80
2018-02-11T15:35:51.506Z,4.70
2018-02-11T15:38:20.192Z,4.70
2018-02-11T15:40:48.460Z,4.70
2018-02-11T15:43:16.751Z,4.80
2018-02-11T15:45:45.073Z,4.80
2018-02-11T15:48:13.342Z,4.80
2018-02-11T15:50:42.413Z,4.80
2018-02-11T15:53:11.581Z,4.80
2018-02-11T15:55:40.259Z,4.80
2018-02-11T15:58:08.504Z,4.80
2018-02-11T16:00:36.775Z,4.80
2018-02-11T16:03:05.091Z,4.80
2018-02-11T16:05:33.347Z,4.90
2018-02-11T16:08:01.640Z,4.90
2018-02-11T16:10:29.895Z,5.00
2018-02-11T16:12:58.553Z,5.00
2018-02-11T16:15:27.577Z,5.00
2018-02-11T16:17:55.867Z,4.90
2018-02-11T16:20:24.177Z,4.90
2018-02-11T16:22:52.434Z,4.90
2018-02-11T16:25:20.750Z,4.90
2018-02-11T16:27:49.079Z,4.90
2018-02-11T16:30:17.358Z,4.90
2018-02-11T16:32:45.673Z,4.90
2018-02-11T16:35:14.389Z,4.80
2018-02-11T16:37:43.509Z,4.80
2018-02-11T16:40:11.799Z,4.80
2018-02-11T16:42:40.133Z,4.80
2018-02-11T16:45:08.394Z,4.80
2018-02-11T16:47:36.711Z,4.80
2018-02-11T16:50:05.008Z,4.70
2018-02-11T16:52:33.289Z,4.60
2018-02-11T16:55:01.575Z,4.60
2018-02-11T16:57:30.175Z,4.60
2018-02-11T16:59:58.448Z,4.60
2018-02-11T17:02:26.734Z,4.50
2018-02-11T17:04:55.061Z,4.60
2018-02-11T17:07:23.323Z,4.60
2018-02-11T17:09:52.445Z,4.70
2018-02-11T17:12:20.684Z,4.70
2018-02-11T17:14:50.209Z,4.70
2018-02-11T17:17:19.240Z,4.80
2018-02-11T17:19:47.477Z,4.80
2018-02-11T17:22:15.737Z,4.80
2018-02-11T17:24:44.754Z,4.90
2018-02-11T17:27:13.029Z,4.80
2018-02-11T17:29:41.325Z,4.90
2018-02-11T17:32:10.067Z,4.90
2018-02-11T17:34:38.312Z,4.90
2018-02-11T17:37:06.618Z,4.90
2018-02-11T17:39:34.910Z,5.00
2018-02-11T17:42:03.957Z,4.90
2018-02-11T17:44:32.523Z,4.90
2018-02-11T17:47:00.776Z,4.90
2018-02-11T17:49:29.062Z,4.90
2018-02-11T17:51:57.920Z,4.80
2018-02-11T17:54:26.223Z,4.80
2018-02-11T17:56:55.288Z,4.70
2018-02-11T17:59:23.522Z,4.70
2018-02-11T18:01:52.086Z,4.70
2018-02-11T18:04:20.329Z,4.70
2018-02-11T18:06:48.577Z,4.70
2018-02-11T18:09:16.840Z,4.70
2018-02-11T18:11:46.008Z,4.70
2018-02-11T18:14:15.083Z,4.70
2018-02-11T18:16:44.139Z,4.70
2018-02-11T18:19:12.851Z,4.70
2018-02-11T18:21:41.092Z,4.70
2018-02-11T18:24:09.345Z,4.70
2018-02-11T18:26:37.602Z,4.80
2018-02-11T18:29:06.601Z,4.80
2018-02-11T18:31:35.628Z,4.80
2018-02-11T18:34:03.899Z,4.80
2018-02-11T18:36:32.635Z,4.80
2018-02-11T18:39:00.964Z,4.70
2018-02-11T18:41:29.224Z,4.70
2018-02-11T18:43:58.256Z,4.60
2018-02-11T18:46:26.538Z,4.60
2018-02-11T18:48:54.914Z,4.70
2018-02-11T18:51:23.793Z,4.60
2018-02-11T18:53:52.420Z,4.60
2018-02-11T18:56:20.713Z,4.60
2018-02-11T18:58:49.009Z,4.50
2018-02-11T19:01:17.269Z,4.50
2018-02-11T19:03:46.323Z,4.50
2018-02-11T19:06:14.578Z,4.50
2018-02-11T19:08:42.872Z,4.50
2018-02-11T19:11:11.596Z,4.40
2018-02-11T19:13:39.877Z,4.40
2018-02-11T19:16:08.125Z,4.40
2018-02-11T19:18:36.388Z,4.40
2018-02-11T19:21:04.694Z,4.50
2018-02-11T19:23:32.982Z,4.40
2018-02-11T19:26:01.293Z,4.50
2018-02-11T19:28:29.908Z,4.50
2018-02-11T19:30:58.182Z,4.40
2018-02-11T19:33:26.423Z,4.50
2018-02-11T19:35:54.682Z,4.50
2018-02-11T19:38:23.762Z,4.40
2018-02-11T19:40:52.093Z,4.40
2018-02-11T19:43:20.395Z,4.40
2018-02-11T19:45:48.977Z,4.40
2018-02-11T19:48:17.224Z,4.30
2018-02-11T19:50:45.538Z,4.30
2018-02-11T19:53:13.839Z,4.30
2018-02-11T19:55:42.091Z,4.30
2018-02-11T19:58:10.380Z,4.30
2018-02-11T20:00:38.673Z,4.20
2018-02-11T20:03:06.971Z,4.10
2018-02-11T20:05:36.053Z,4.00
2018-02-11T20:08:05.156Z,4.00
2018-02-11T20:10:34.235Z,4.00
2018-02-11T20:13:02.938Z,4.00
2018-02-11T20:15:31.252Z,4.00
2018-02-11T20:17:59.563Z,4.10
2018-02-11T20:20:27.852Z,4.10
2018-02-11T20:22:56.111Z,4.10
2018-02-11T20:25:24.692Z,4.10
2018-02-11T20:27:52.965Z,4.00
2018-02-11T20:30:21.222Z,4.10
2018-02-11T20:32:50.101Z,4.10
2018-02-11T20:35:18.363Z,4.00
2018-02-11T20:37:47.397Z,4.00
2018-02-11T20:40:15.669Z,4.00
2018-02-11T20:42:43.955Z,4.10
2018-02-11T20:45:12.218Z,4.20
2018-02-11T20:47:40.547Z,4.20
2018-02-11T20:50:09.663Z,4.20
2018-02-11T20:52:38.805Z,4.30
2018-02-11T20:55:07.145Z,4.30
2018-02-11T20:57:36.198Z,4.30
2018-02-11T21:00:04.479Z,4.30
2018-02-11T21:02:32.781Z,4.30
2018-02-11T21:05:01.849Z,4.30
2018-02-11T21:07:30.147Z,4.30
2018-02-11T21:09:58.430Z,4.30
2018-02-11T21:12:27.493Z,4.20
2018-02-11T21:14:56.013Z,4.20
2018-02-11T21:17:25.053Z,4.30
2018-02-11T21:19:53.331Z,4.20
2018-02-11T21:22:21.640Z,4.20
2018-02-11T21:24:50.160Z,4.30
2018-02-11T21:27:18.439Z,4.30
2018-02-11T21:29:46.698Z,4.30
2018-02-11T21:32:15.729Z,4.30
2018-02-11T21:34:43.969Z,4.30
2018-02-11T21:37:13.433Z,4.30
2018-02-11T21:39:42.308Z,4.30
2018-02-11T21:42:10.619Z,4.30
2018-02-11T21:44:38.892Z,4.30
2018-02-11T21:47:07.144Z,4.30
2018-02-11T21:49:35.414Z,4.30
2018-02-11T21:52:03.699Z,4.30
2018-02-11T21:54:32.307Z,4.20
2018-02-11T21:57:00.547Z,4.20
2018-02-11T21:59:28.815Z,4.20
2018-02-11T22:01:57.117Z,4.20
2018-02-11T22:04:25.342Z,4.20
2018-02-11T22:06:54.404Z,4.20
2018-02-11T22:09:23.444Z,4.20
2018-02-11T22:11:52.827Z,4.20
2018-02-11T22:14:21.101Z,4.10
2018-02-11T22:16:49.370Z,4.20
2018-02-11T22:19:17.665Z,4.20
2018-02-11T22:21:46.754Z,4.20
2018-02-11T22:24:15.039Z,4.10
2018-02-11T22:26:44.088Z,4.10
2018-02-11T22:29:12.708Z,4.10
2018-02-11T22:31:41.010Z,4.20
2018-02-11T22:34:10.005Z,4.10
2018-02-11T22:36:38.304Z,4.10
2018-02-11T22:39:06.580Z,4.20
2018-02-11T22:41:34.862Z,4.20
2018-02-11T22:44:03.158Z,4.20
2018-02-11T22:46:31.779Z,4.20
2018-02-11T22:49:00.067Z,4.20
2018-02-11T22:51:29.074Z,4.20
2018-02-11T22:53:58.085Z,4.20
2018-02-11T22:56:26.336Z,4.20
2018-02-11T23:01:23.665Z,4.20
2018-02-11T23:03:52.213Z,4.20
2018-02-11T23:06:20.506Z,4.20
2018-02-11T23:08:48.749Z,4.20
2018-02-11T23:11:17.793Z,4.20
2018-02-11T23:13:46.080Z,4.10
2018-02-11T23:16:14.366Z,4.20
2018-02-11T23:18:42.638Z,4.10
2018-02-11T23:21:11.205Z,4.20
2018-02-11T23:23:39.449Z,4.20
2018-02-11T23:26:07.698Z,4.20
2018-02-11T23:28:36.750Z,4.20
2018-02-11T23:31:05.023Z,4.10
2018-02-11T23:33:33.269Z,4.20
2018-02-11T23:36:01.513Z,4.30
2018-02-11T23:38:29.759Z,4.30
2018-02-11T23:40:58.000Z,4.30
2018-02-11T23:43:26.655Z,4.30
2018-02-11T23:45:54.919Z,4.40
2018-02-11T23:48:23.199Z,4.40
2018-02-11T23:50:51.434Z,4.30
2018-02-11T23:53:19.723Z,4.30
2018-02-11T23:55:48.010Z,4.30
2018-02-11T23:58:16.246Z,4.30
